Terminal Aerodrome Forecast
Issued by NWS

Current Version | Previous Version | Text Only | Print | Product List | Glossary On
Versions: 1 2 3 4 5 6 7 8 9 10 11 12 13 14 15 16 17 18 19 20 21
000
FTUS44 KLIX 260306 AAA
TAFGPT
TAF AMD
KGPT 260306Z 2603/2624 12013KT P6SM SCT020 SCT028 BKN060
      TEMPO 2603/2606 VRB15KT 2SM TSRA BR BKN025CB BKN060
     FM260600 13006KT P6SM BKN250
     FM261600 13005KT P6SM VCSH SCT025 BKN090
      TEMPO 2618/2622 VRB15G25KT 1SM TSRA BKN025CB BKN090
     FM262200 20009KT P6SM BKN040=

USA.gov is the U.S. government's official web portal to all federal, state and local government web resources and services.